createdAt,value
2018-04-22T00:02:05.125Z,5.07
2018-04-22T00:06:56.012Z,5.13
2018-04-22T00:11:46.900Z,5.47
2018-04-22T00:16:37.806Z,5.60
2018-04-22T00:21:28.722Z,5.07
2018-04-22T00:26:19.631Z,6.73
2018-04-22T00:31:10.570Z,7.47
2018-04-22T00:36:01.490Z,6.67
2018-04-22T00:40:52.409Z,5.50
2018-04-22T00:45:43.295Z,6.90
2018-04-22T00:50:34.193Z,5.40
2018-04-22T00:55:25.828Z,5.17
2018-04-22T01:00:17.455Z,5.63
2018-04-22T01:05:08.336Z,5.20
2018-04-22T01:09:59.225Z,5.37
2018-04-22T01:14:50.123Z,4.10
2018-04-22T01:19:41.759Z,5.30
2018-04-22T01:24:33.455Z,4.80
2018-04-22T01:29:24.339Z,5.10
2018-04-22T01:34:15.235Z,5.30
2018-04-22T01:39:06.863Z,4.90
2018-04-22T01:43:58.484Z,4.77
2018-04-22T01:48:49.367Z,4.27
2018-04-22T01:53:40.243Z,4.03
2018-04-22T01:58:31.875Z,4.27
2018-04-22T02:03:23.504Z,4.13
2018-04-22T02:08:14.400Z,4.73
2018-04-22T02:13:05.279Z,3.90
2018-04-22T02:17:57.244Z,4.47
2018-04-22T02:22:48.163Z,4.50
2018-04-22T02:27:39.099Z,4.27
2018-04-22T02:32:29.988Z,3.70
2018-04-22T02:37:21.652Z,4.00
2018-04-22T02:42:12.540Z,4.50
2018-04-22T02:47:04.235Z,4.10
2018-04-22T02:51:55.124Z,3.97
2018-04-22T02:56:46.069Z,3.90
2018-04-22T03:01:36.960Z,4.40
2018-04-22T03:06:27.847Z,4.97
2018-04-22T03:11:19.479Z,4.20
2018-04-22T03:16:11.115Z,4.17
2018-04-22T03:21:02.748Z,4.20
2018-04-22T03:25:54.454Z,3.57
2018-04-22T03:30:45.336Z,4.40
2018-04-22T03:35:36.224Z,4.10
2018-04-22T03:40:27.909Z,4.10
2018-04-22T03:45:18.792Z,4.23
2018-04-22T03:50:09.676Z,4.80
2018-04-22T03:55:00.559Z,5.07
2018-04-22T03:59:51.440Z,4.90
2018-04-22T04:04:43.068Z,3.53
2018-04-22T04:09:34.744Z,4.73
2018-04-22T04:14:25.632Z,4.13
2018-04-22T04:19:28.884Z,4.43
2018-04-22T04:29:43.901Z,4.30
2018-04-22T04:34:34.808Z,4.40
2018-04-22T04:39:25.703Z,4.10
2018-04-22T04:44:16.600Z,4.30
2018-04-22T04:49:08.227Z,4.50
2018-04-22T04:53:59.866Z,4.70
2018-04-22T04:58:51.661Z,4.43
2018-04-22T05:03:42.575Z,4.50
2018-04-22T05:08:33.467Z,4.90
2018-04-22T05:13:24.356Z,3.83
2018-04-22T05:18:16.011Z,4.10
2018-04-22T05:23:06.895Z,3.60
2018-04-22T05:27:57.784Z,4.00
2018-04-22T05:32:48.668Z,4.20
2018-04-22T05:37:39.620Z,3.70
2018-04-22T05:42:30.508Z,3.57
2018-04-22T05:47:21.491Z,5.00
2018-04-22T05:52:12.375Z,4.87
2018-04-22T05:57:03.259Z,4.70
2018-04-22T06:01:54.939Z,5.20
2018-04-22T06:06:45.818Z,4.70
2018-04-22T06:11:36.707Z,5.57
2018-04-22T06:16:27.597Z,4.90
2018-04-22T06:21:18.511Z,5.57
2018-04-22T06:26:09.407Z,5.20
2018-04-22T06:31:00.295Z,5.73
2018-04-22T06:35:51.984Z,5.47
2018-04-22T06:40:42.868Z,4.03
2018-04-22T06:45:33.816Z,4.57
2018-04-22T06:50:24.713Z,4.40
2018-04-22T06:55:15.643Z,4.53
2018-04-22T07:00:06.530Z,5.27
2018-04-22T07:04:58.203Z,4.77
2018-04-22T07:09:49.092Z,4.30
2018-04-22T07:14:39.975Z,5.17
2018-04-22T07:19:30.855Z,4.73
2018-04-22T07:24:21.740Z,4.23
2018-04-22T07:29:12.647Z,5.10
2018-04-22T07:34:04.330Z,4.00
2018-04-22T07:38:55.264Z,4.20
2018-04-22T07:43:46.148Z,4.20
2018-04-22T07:48:37.080Z,4.10
2018-04-22T07:53:27.975Z,3.83
2018-04-22T07:58:18.869Z,4.63
2018-04-22T08:03:10.491Z,4.40
2018-04-22T08:08:02.907Z,4.83
2018-04-22T08:12:53.828Z,4.27
2018-04-22T08:17:44.720Z,4.53
2018-04-22T08:22:35.639Z,4.20
2018-04-22T08:27:26.575Z,4.07
2018-04-22T08:32:17.507Z,4.30
2018-04-22T08:37:08.423Z,5.10
2018-04-22T08:41:59.355Z,4.57
2018-04-22T08:46:50.263Z,4.67
2018-04-22T08:51:41.146Z,5.03
2018-04-22T08:56:32.040Z,4.30
2018-04-22T09:01:23.687Z,4.83
2018-04-22T09:06:15.367Z,4.90
2018-04-22T09:11:06.251Z,4.80
2018-04-22T09:15:57.139Z,4.90
2018-04-22T09:20:48.028Z,5.13
2018-04-22T09:25:38.942Z,5.83
2018-04-22T09:30:29.835Z,5.17
2018-04-22T09:35:20.735Z,5.10
2018-04-22T09:40:12.419Z,7.37
2018-04-22T09:45:03.315Z,5.93
2018-04-22T09:49:54.219Z,5.20
2018-04-22T09:54:45.172Z,5.60
2018-04-22T09:59:36.244Z,5.93
2018-04-22T10:04:27.881Z,6.53
2018-04-22T10:09:19.508Z,6.03
2018-04-22T10:14:11.132Z,5.77
2018-04-22T10:19:02.763Z,5.63
2018-04-22T10:23:53.659Z,6.47
2018-04-22T10:28:44.554Z,6.20
2018-04-22T10:33:35.452Z,5.10
2018-04-22T10:38:26.348Z,5.30
2018-04-22T10:43:17.987Z,5.53
2018-04-22T10:48:09.607Z,5.30
2018-04-22T10:53:00.488Z,5.47
2018-04-22T10:57:51.451Z,5.20
2018-04-22T11:02:42.288Z,4.87
2018-04-22T11:07:33.183Z,4.67
2018-04-22T11:12:24.075Z,5.43
2018-04-22T11:17:14.975Z,4.20
2018-04-22T11:22:05.877Z,5.70
2018-04-22T11:26:56.776Z,4.37
2018-04-22T11:31:47.671Z,5.23
2018-04-22T11:36:38.563Z,4.43
2018-04-22T11:41:29.471Z,4.40
2018-04-22T11:46:20.360Z,4.70
2018-04-22T11:51:11.247Z,4.50
2018-04-22T11:56:02.891Z,5.10
2018-04-22T12:00:54.537Z,4.47
2018-04-22T12:05:45.427Z,3.63
2018-04-22T12:10:37.084Z,4.10
2018-04-22T12:15:28.712Z,3.67
2018-04-22T12:20:20.352Z,3.70
2018-04-22T12:25:11.984Z,3.90
2018-04-22T12:30:03.615Z,3.17
2018-04-22T12:34:55.242Z,3.30
2018-04-22T12:39:46.166Z,2.70
2018-04-22T12:44:37.791Z,2.70
2018-04-22T12:49:28.675Z,3.03
2018-04-22T12:54:20.330Z,2.70
2018-04-22T12:59:11.241Z,2.90
2018-04-22T13:04:02.136Z,2.37
2018-04-22T13:08:53.080Z,2.67
2018-04-22T13:13:43.969Z,3.37
2018-04-22T13:18:34.881Z,2.90
2018-04-22T13:23:25.774Z,4.27
2018-04-22T13:28:17.600Z,3.70
2018-04-22T13:33:08.502Z,3.40
2018-04-22T13:37:59.508Z,3.93
2018-04-22T13:42:50.400Z,4.10
2018-04-22T13:47:41.295Z,4.17
2018-04-22T13:52:32.927Z,4.40
2018-04-22T13:57:24.559Z,4.13
2018-04-22T14:02:16.195Z,3.93
2018-04-22T14:07:07.822Z,3.93
2018-04-22T14:11:59.460Z,4.47
2018-04-22T14:16:51.088Z,4.33
2018-04-22T14:21:41.977Z,4.70
2018-04-22T14:26:32.883Z,4.33
2018-04-22T14:31:23.768Z,4.17
2018-04-22T14:36:14.655Z,5.27
2018-04-22T14:41:05.547Z,3.87
2018-04-22T14:46:03.599Z,3.77
2018-04-22T14:50:54.508Z,3.60
2018-04-22T14:55:45.402Z,3.93
2018-04-22T15:00:37.032Z,4.10
2018-04-22T15:05:27.943Z,3.73
2018-04-22T15:10:18.835Z,3.80
2018-04-22T15:15:09.722Z,3.87
2018-04-22T15:20:00.615Z,4.10
2018-04-22T15:24:52.247Z,3.77
2018-04-22T15:29:43.885Z,4.00
2018-04-22T15:34:35.531Z,4.30
2018-04-22T15:39:26.440Z,3.50
2018-04-22T15:44:18.123Z,3.50
2018-04-22T15:49:09.021Z,3.80
2018-04-22T15:53:59.899Z,5.57
2018-04-22T15:58:51.604Z,4.53
2018-04-22T16:03:42.495Z,5.07
2018-04-22T16:08:33.404Z,4.80
2018-04-22T16:13:24.348Z,5.10
2018-04-22T16:18:15.237Z,4.83
2018-04-22T16:23:06.133Z,4.63
2018-04-22T16:27:57.764Z,4.57
2018-04-22T16:32:48.659Z,4.50
2018-04-22T16:37:39.583Z,4.30
2018-04-22T16:42:30.471Z,4.30
2018-04-22T16:47:21.356Z,4.17
2018-04-22T16:52:13.035Z,4.77
2018-04-22T16:57:03.920Z,4.57
2018-04-22T17:01:54.905Z,4.70
2018-04-22T17:06:45.895Z,4.73
2018-04-22T17:11:36.812Z,5.63
2018-04-22T17:16:27.730Z,4.80
2018-04-22T17:21:18.616Z,5.13
2018-04-22T17:26:09.641Z,4.60
2018-04-22T17:31:00.535Z,4.60
2018-04-22T17:35:52.165Z,5.23
2018-04-22T17:40:43.808Z,5.30
2018-04-22T17:45:35.435Z,4.90
2018-04-22T17:50:27.059Z,4.47
2018-04-22T17:55:17.947Z,4.73
2018-04-22T18:00:08.834Z,5.00
2018-04-22T18:04:59.712Z,5.00
2018-04-22T18:09:50.589Z,4.60
2018-04-22T18:14:41.505Z,5.93
2018-04-22T18:24:50.192Z,4.55
2018-04-22T18:29:41.079Z,5.20
2018-04-22T18:34:31.972Z,4.97
2018-04-22T18:39:23.612Z,4.83
2018-04-22T18:44:15.232Z,5.50
2018-04-22T18:49:06.987Z,5.80
2018-04-22T18:53:57.991Z,4.97
2018-04-22T18:58:49.801Z,5.07
2018-04-22T19:03:40.700Z,4.97
2018-04-22T19:08:31.623Z,5.10
2018-04-22T19:13:22.547Z,5.37
2018-04-22T19:18:13.431Z,4.67
2018-04-22T19:23:04.424Z,5.07
2018-04-22T19:27:55.272Z,4.87
2018-04-22T19:32:46.143Z,4.80
2018-04-22T19:37:37.024Z,5.03
2018-04-22T19:42:27.951Z,5.50
2018-04-22T19:47:18.836Z,5.07
2018-04-22T19:52:09.723Z,5.90
2018-04-22T19:57:01.363Z,5.63
2018-04-22T20:01:53.023Z,5.50
2018-04-22T20:06:43.912Z,5.60
2018-04-22T20:11:34.802Z,5.43
2018-04-22T20:16:25.708Z,5.80
2018-04-22T20:21:16.595Z,6.63
2018-04-22T20:26:07.500Z,6.73
2018-04-22T20:30:59.131Z,6.47
2018-04-22T20:35:50.755Z,6.47
2018-04-22T20:40:41.644Z,5.90
2018-04-22T20:45:32.532Z,5.40
2018-04-22T20:50:23.407Z,6.50
2018-04-22T20:55:14.287Z,5.80
2018-04-22T21:00:05.165Z,6.63
2018-04-22T21:04:56.783Z,6.03
2018-04-22T21:09:47.671Z,6.90
2018-04-22T21:14:38.567Z,6.20
2018-04-22T21:19:29.441Z,6.30
2018-04-22T21:24:21.064Z,5.90
2018-04-22T21:29:11.938Z,6.20
2018-04-22T21:34:02.811Z,5.87
2018-04-22T21:38:54.503Z,6.50
2018-04-22T21:43:45.378Z,6.00
2018-04-22T21:48:37.054Z,5.23
2018-04-22T21:53:27.954Z,5.17
2018-04-22T21:58:18.890Z,4.80
2018-04-22T22:03:09.781Z,4.60
2018-04-22T22:08:01.421Z,4.50
2018-04-22T22:12:52.328Z,4.10
2018-04-22T22:17:43.239Z,4.03
2018-04-22T22:22:34.880Z,3.83
2018-04-22T22:27:26.521Z,3.80
2018-04-22T22:32:18.147Z,3.60
2018-04-22T22:37:09.783Z,4.33
2018-04-22T22:42:01.421Z,3.80
2018-04-22T22:46:53.057Z,3.53
2018-04-22T22:51:44.674Z,3.27
2018-04-22T22:56:35.561Z,3.27
2018-04-22T23:01:26.435Z,3.00
2018-04-22T23:06:17.391Z,4.00
2018-04-22T23:11:08.277Z,3.33
2018-04-22T23:15:59.160Z,3.60
2018-04-22T23:20:50.159Z,3.50
2018-04-22T23:25:41.034Z,4.47
2018-04-22T23:30:31.913Z,3.80
2018-04-22T23:35:22.792Z,3.60
2018-04-22T23:40:13.684Z,4.40
2018-04-22T23:45:05.334Z,4.00
2018-04-22T23:49:56.295Z,3.93
2018-04-22T23:54:47.183Z,5.37
2018-04-22T23:59:38.081Z,4.87
